createdAt,value
2023-01-02T00:01:33.163Z,17.50
2023-01-02T00:04:01.613Z,17.50
2023-01-02T00:06:29.963Z,17.50
2023-01-02T00:08:58.249Z,17.60
2023-01-02T00:11:27.960Z,17.60
2023-01-02T00:13:56.353Z,17.60
2023-01-02T00:16:25.227Z,17.60
2023-01-02T00:18:55.409Z,17.60
2023-01-02T00:21:23.710Z,17.60
2023-01-02T00:23:52.034Z,17.60
2023-01-02T00:26:20.326Z,17.60
2023-01-02T00:28:50.058Z,17.60
2023-01-02T00:31:18.399Z,17.50
2023-01-02T00:33:46.714Z,17.60
2023-01-02T00:36:15.441Z,17.60
2023-01-02T00:38:44.790Z,17.60
2023-01-02T00:41:13.074Z,17.50
2023-01-02T00:43:43.596Z,17.50
2023-01-02T00:46:13.311Z,17.50
2023-01-02T00:48:41.812Z,17.50
2023-01-02T00:51:10.474Z,17.50
2023-01-02T00:53:39.167Z,17.50
2023-01-02T00:56:08.217Z,17.50
2023-01-02T00:58:36.882Z,17.50
2023-01-02T01:01:05.975Z,17.60
2023-01-02T01:03:35.815Z,17.60
2023-01-02T01:06:08.834Z,17.60
2023-01-02T01:08:38.072Z,17.60
2023-01-02T01:11:07.903Z,17.60
2023-01-02T01:13:36.532Z,17.70
2023-01-02T01:16:06.721Z,17.70
2023-01-02T01:18:37.234Z,17.70
2023-01-02T01:21:09.749Z,17.70
2023-01-02T01:23:38.119Z,17.70
2023-01-02T01:26:09.571Z,17.80
2023-01-02T01:28:38.549Z,17.80
2023-01-02T01:31:09.925Z,17.80
2023-01-02T01:33:40.977Z,17.90
2023-01-02T01:36:12.390Z,17.90
2023-01-02T01:38:40.968Z,18.00
2023-01-02T01:41:11.324Z,18.00
2023-01-02T01:43:43.290Z,18.00
2023-01-02T01:46:23.265Z,18.00
2023-01-02T01:48:59.713Z,18.10
2023-01-02T01:51:31.189Z,18.10
2023-01-02T01:54:07.723Z,18.10
2023-01-02T01:56:40.428Z,18.10
2023-01-02T01:59:11.435Z,18.10
2023-01-02T02:01:41.651Z,18.10
2023-01-02T02:04:15.843Z,18.10
2023-01-02T02:06:44.370Z,18.20
2023-01-02T02:09:18.443Z,18.10
2023-01-02T02:11:48.075Z,18.10
2023-01-02T02:14:16.684Z,18.10
2023-01-02T02:16:52.620Z,18.20
2023-01-02T02:20:08.551Z,18.20
2023-01-02T02:23:25.923Z,18.10
2023-01-02T02:26:34.563Z,18.20
2023-01-02T02:29:51.943Z,18.20
2023-01-02T02:32:28.174Z,18.10
2023-01-02T02:35:06.205Z,18.20
2023-01-02T02:37:44.507Z,18.10
2023-01-02T02:40:21.161Z,18.20
2023-01-02T02:43:04.118Z,18.10
2023-01-02T02:45:48.193Z,18.20
2023-01-02T02:48:24.194Z,18.20
2023-01-02T02:51:02.275Z,18.10
2023-01-02T02:53:38.674Z,18.10
2023-01-02T02:56:12.171Z,18.10
2023-01-02T02:58:42.491Z,18.10
2023-01-02T03:01:18.300Z,18.10
2023-01-02T03:03:46.879Z,18.10
2023-01-02T03:06:30.275Z,18.10
2023-01-02T03:09:10.931Z,18.10
2023-01-02T03:11:49.857Z,18.10
2023-01-02T03:14:25.970Z,18.10
2023-01-02T03:17:02.428Z,18.10
2023-01-02T03:19:39.013Z,18.10
2023-01-02T03:22:13.742Z,18.10
2023-01-02T03:24:43.583Z,18.10
2023-01-02T03:27:16.075Z,18.10
2023-01-02T03:29:48.717Z,18.10
2023-01-02T03:32:24.991Z,18.10
2023-01-02T03:34:55.118Z,18.10
2023-01-02T03:37:29.633Z,18.10
2023-01-02T03:40:03.691Z,18.10
2023-01-02T03:42:36.649Z,18.10
2023-01-02T03:45:10.782Z,18.10
2023-01-02T03:47:45.300Z,18.10
2023-01-02T03:50:27.497Z,18.10
2023-01-02T03:52:55.883Z,18.10
2023-01-02T03:55:27.156Z,18.10
2023-01-02T03:58:02.987Z,18.10
2023-01-02T04:00:36.940Z,18.10
2023-01-02T04:03:11.112Z,18.10
2023-01-02T04:05:45.390Z,18.10
2023-01-02T04:08:22.000Z,18.10
2023-01-02T04:10:58.029Z,18.10
2023-01-02T04:13:31.247Z,18.10
2023-01-02T04:16:01.505Z,18.10
2023-01-02T04:18:35.053Z,18.10
2023-01-02T04:21:10.615Z,18.30
2023-01-02T04:23:43.375Z,18.10
2023-01-02T04:26:16.897Z,18.10
2023-01-02T04:28:45.367Z,18.20
2023-01-02T04:31:19.708Z,18.20
2023-01-02T04:33:52.992Z,18.10
2023-01-02T04:36:22.441Z,18.20
2023-01-02T04:38:50.919Z,18.20
2023-01-02T04:41:26.993Z,18.20
2023-01-02T04:43:55.529Z,18.20
2023-01-02T04:46:25.341Z,18.10
2023-01-02T04:48:55.874Z,18.10
2023-01-02T04:51:25.659Z,18.10
2023-01-02T04:53:54.661Z,18.10
2023-01-02T04:56:23.633Z,18.00
2023-01-02T04:58:51.953Z,18.00
2023-01-02T05:01:22.201Z,18.00
2023-01-02T05:03:52.747Z,18.00
2023-01-02T05:06:22.626Z,18.00
2023-01-02T05:08:50.934Z,18.00
2023-01-02T05:11:21.310Z,18.00
2023-01-02T05:13:49.640Z,17.90
2023-01-02T05:16:18.093Z,17.90
2023-01-02T05:18:46.422Z,17.90
2023-01-02T05:21:29.415Z,17.90
2023-01-02T05:24:01.282Z,17.90
2023-01-02T05:26:32.967Z,17.90
2023-01-02T05:29:02.495Z,17.80
2023-01-02T05:31:31.094Z,17.80
2023-01-02T05:34:00.873Z,17.80
2023-01-02T05:36:29.443Z,17.80
2023-01-02T05:38:59.238Z,17.80
2023-01-02T05:41:27.541Z,17.80
2023-01-02T05:43:56.599Z,17.70
2023-01-02T05:46:24.937Z,17.70
2023-01-02T05:48:53.264Z,17.70
2023-01-02T05:51:21.606Z,17.70
2023-01-02T05:53:50.902Z,17.70
2023-01-02T05:56:21.571Z,17.70
2023-01-02T05:58:51.458Z,17.70
2023-01-02T06:01:22.442Z,17.70
2023-01-02T06:03:52.933Z,17.70
2023-01-02T06:06:23.997Z,17.70
2023-01-02T06:08:52.910Z,17.70
2023-01-02T06:11:22.711Z,17.70
2023-01-02T06:13:51.032Z,17.70
2023-01-02T06:16:19.343Z,17.70
2023-01-02T06:18:48.108Z,17.70
2023-01-02T06:21:19.482Z,17.70
2023-01-02T06:23:48.768Z,17.70
2023-01-02T06:26:20.061Z,17.70
2023-01-02T06:28:52.414Z,17.70
2023-01-02T06:31:23.095Z,17.60
2023-01-02T06:33:55.621Z,17.60
2023-01-02T06:36:24.362Z,17.60
2023-01-02T06:38:52.645Z,17.60
2023-01-02T06:41:20.948Z,17.60
2023-01-02T06:43:52.567Z,17.60
2023-01-02T06:46:23.985Z,17.60
2023-01-02T06:48:52.587Z,17.60
2023-01-02T06:51:23.545Z,17.60
2023-01-02T06:53:52.423Z,17.60
2023-01-02T06:56:21.953Z,17.60
2023-01-02T06:58:51.601Z,17.60
2023-01-02T07:01:22.576Z,17.60
2023-01-02T07:03:51.084Z,17.60
2023-01-02T07:06:21.799Z,17.60
2023-01-02T07:08:50.625Z,17.50
2023-01-02T07:11:21.518Z,17.60
2023-01-02T07:13:54.998Z,17.50
2023-01-02T07:16:24.737Z,17.60
2023-01-02T07:18:54.629Z,17.60
2023-01-02T07:21:23.218Z,17.60
2023-01-02T07:23:51.625Z,17.60
2023-01-02T07:26:20.239Z,17.60
2023-01-02T07:28:48.959Z,17.50
2023-01-02T07:31:20.563Z,17.60
2023-01-02T07:33:49.356Z,17.60
2023-01-02T07:36:22.180Z,17.60
2023-01-02T07:38:52.182Z,17.60
2023-01-02T07:41:22.786Z,17.60
2023-01-02T07:43:51.928Z,17.60
2023-01-02T07:46:21.968Z,17.60
2023-01-02T07:48:50.527Z,17.60
2023-01-02T07:51:24.778Z,17.60
2023-01-02T07:53:56.954Z,17.60
2023-01-02T07:56:25.831Z,17.60
2023-01-02T07:58:54.540Z,17.60
2023-01-02T08:01:24.580Z,17.60
2023-01-02T08:03:53.072Z,17.60
2023-01-02T08:06:21.809Z,17.60
2023-01-02T08:08:50.267Z,17.60
2023-01-02T08:11:20.714Z,17.60
2023-01-02T08:13:49.295Z,17.60
2023-01-02T08:16:19.495Z,17.70
2023-01-02T08:18:51.483Z,17.70
2023-01-02T08:21:19.957Z,17.70
2023-01-02T08:23:48.262Z,17.70
2023-01-02T08:26:16.902Z,17.70
2023-01-02T08:28:46.274Z,17.70
2023-01-02T08:31:19.074Z,17.70
2023-01-02T08:33:48.911Z,17.70
2023-01-02T08:36:17.245Z,17.70
2023-01-02T08:38:45.593Z,17.70
2023-01-02T08:41:13.874Z,17.80
2023-01-02T08:43:42.238Z,17.70
2023-01-02T08:46:11.727Z,17.80
2023-01-02T08:48:40.091Z,17.80
2023-01-02T08:51:10.619Z,17.80
2023-01-02T08:53:38.963Z,17.80
2023-01-02T08:56:25.486Z,17.80
2023-01-02T08:58:56.249Z,17.80
2023-01-02T09:01:25.816Z,17.80
2023-01-02T09:03:57.270Z,17.80
2023-01-02T09:06:29.829Z,17.80
2023-01-02T09:09:05.796Z,17.80
2023-01-02T09:11:40.435Z,17.80
2023-01-02T09:14:10.892Z,17.80
2023-01-02T09:16:39.259Z,17.90
2023-01-02T09:19:07.971Z,17.90
2023-01-02T09:21:40.346Z,17.80
2023-01-02T09:24:09.966Z,17.80
2023-01-02T09:26:41.802Z,17.90
2023-01-02T09:29:14.518Z,17.90
2023-01-02T09:31:44.740Z,17.90
2023-01-02T09:34:13.477Z,17.90
2023-01-02T09:36:43.222Z,17.90
2023-01-02T09:39:12.713Z,17.90
2023-01-02T09:41:43.777Z,17.90
2023-01-02T09:44:18.220Z,17.90
2023-01-02T09:46:52.510Z,17.90
2023-01-02T09:49:24.482Z,17.90
2023-01-02T09:51:54.372Z,17.90
2023-01-02T09:54:26.687Z,17.90
2023-01-02T09:57:12.624Z,17.90
2023-01-02T09:59:50.272Z,17.90
2023-01-02T10:02:42.179Z,17.90
2023-01-02T10:05:33.709Z,17.90
2023-01-02T10:08:12.979Z,18.00
2023-01-02T10:10:44.184Z,18.00
2023-01-02T10:13:32.744Z,18.00
2023-01-02T10:16:19.820Z,18.00
2023-01-02T10:18:52.921Z,18.00
2023-01-02T10:21:26.082Z,17.90
2023-01-02T10:24:03.437Z,18.00
2023-01-02T10:26:37.601Z,17.90
2023-01-02T10:29:17.210Z,18.00
2023-01-02T10:31:49.928Z,18.00
2023-01-02T10:34:21.497Z,17.90
2023-01-02T10:36:51.868Z,18.00
2023-01-02T10:39:23.783Z,18.00
2023-01-02T10:41:55.447Z,18.00
2023-01-02T10:44:28.440Z,18.00
2023-01-02T10:46:58.168Z,18.00
2023-01-02T10:49:27.896Z,18.00
2023-01-02T10:52:07.682Z,18.00
2023-01-02T10:54:56.743Z,18.10
2023-01-02T10:57:38.252Z,18.10
2023-01-02T11:00:09.467Z,18.10
2023-01-02T11:02:41.247Z,18.10
2023-01-02T11:05:22.196Z,18.20
2023-01-02T11:07:52.421Z,18.00
2023-01-02T11:10:28.933Z,18.20
2023-01-02T11:12:57.658Z,18.20
2023-01-02T11:15:30.904Z,18.20
2023-01-02T11:18:00.277Z,18.20
2023-01-02T11:20:32.157Z,18.30
2023-01-02T11:23:04.229Z,18.30
2023-01-02T11:25:42.046Z,18.30
2023-01-02T11:28:17.845Z,18.30
2023-01-02T11:30:48.411Z,18.30
2023-01-02T11:33:28.152Z,18.30
2023-01-02T11:35:58.316Z,18.40
2023-01-02T11:38:30.837Z,18.40
2023-01-02T11:41:03.358Z,18.40
2023-01-02T11:43:49.921Z,18.30
2023-01-02T11:46:29.609Z,18.30
2023-01-02T11:49:04.891Z,18.30
2023-01-02T11:51:36.492Z,18.30
2023-01-02T11:54:11.638Z,18.30
2023-01-02T11:56:44.793Z,18.20
2023-01-02T11:59:19.198Z,18.20
2023-01-02T12:01:58.169Z,18.20
2023-01-02T12:04:27.137Z,18.20
2023-01-02T12:07:23.424Z,18.20
2023-01-02T12:10:01.771Z,18.20
2023-01-02T12:12:53.400Z,18.20
2023-01-02T12:15:50.209Z,18.10
2023-01-02T12:18:32.969Z,18.10
2023-01-02T12:21:08.911Z,18.10
2023-01-02T12:24:09.131Z,18.10
2023-01-02T12:26:48.039Z,18.10
2023-01-02T12:29:46.566Z,18.10
2023-01-02T12:32:55.054Z,18.00
2023-01-02T12:36:06.104Z,18.00
2023-01-02T12:38:51.434Z,18.00
2023-01-02T12:41:31.284Z,18.00
2023-01-02T12:44:33.972Z,18.00
2023-01-02T12:47:29.100Z,17.90
2023-01-02T12:50:24.164Z,17.90
2023-01-02T12:53:12.596Z,17.90
2023-01-02T12:55:54.637Z,17.90
2023-01-02T12:58:36.503Z,17.80
2023-01-02T13:01:20.644Z,17.80
2023-01-02T13:04:00.864Z,17.70
2023-01-02T13:06:45.406Z,17.50
2023-01-02T13:09:24.762Z,17.60
2023-01-02T13:12:05.046Z,17.60
2023-01-02T13:14:39.235Z,17.50
2023-01-02T13:17:31.705Z,17.50
2023-01-02T13:20:06.184Z,17.40
2023-01-02T13:22:43.371Z,17.40
2023-01-02T13:25:16.583Z,17.30
2023-01-02T13:27:46.730Z,17.30
2023-01-02T13:30:57.537Z,17.20
2023-01-02T13:33:39.097Z,17.20
2023-01-02T13:36:21.097Z,17.20
2023-01-02T13:38:53.078Z,17.10
2023-01-02T13:41:22.335Z,17.10
2023-01-02T13:43:54.841Z,17.10
2023-01-02T13:47:02.127Z,17.00
2023-01-02T13:49:22.427Z,17.00
2023-01-02T13:51:50.895Z,17.00
2023-01-02T13:54:23.251Z,16.90
2023-01-02T13:57:19.983Z,16.90
2023-01-02T13:59:55.511Z,16.90
2023-01-02T14:02:24.080Z,16.90
2023-01-02T14:04:54.159Z,16.90
2023-01-02T14:07:44.725Z,16.90
2023-01-02T14:10:34.278Z,16.80
2023-01-02T14:13:11.269Z,16.80
2023-01-02T14:16:33.729Z,16.80
2023-01-02T14:19:23.653Z,16.80
2023-01-02T14:22:04.171Z,16.80
2023-01-02T14:24:40.873Z,16.80
2023-01-02T14:27:24.319Z,16.70
2023-01-02T14:29:56.648Z,16.70
2023-01-02T14:32:43.137Z,16.70
2023-01-02T14:35:27.610Z,16.70
2023-01-02T14:38:10.215Z,16.70
2023-01-02T14:40:41.366Z,16.70
2023-01-02T14:43:30.249Z,16.70
2023-01-02T14:46:07.278Z,16.70
2023-01-02T14:48:42.520Z,16.70
2023-01-02T14:51:17.476Z,16.70
2023-01-02T14:53:53.325Z,16.70
2023-01-02T14:56:27.542Z,16.70
2023-01-02T14:58:57.162Z,16.60
2023-01-02T15:01:42.807Z,16.60
2023-01-02T15:04:21.768Z,16.60
2023-01-02T15:06:57.050Z,16.60
2023-01-02T15:09:33.331Z,16.60
2023-01-02T15:12:21.169Z,16.60
2023-01-02T15:14:49.564Z,16.60
2023-01-02T15:17:21.841Z,16.60
2023-01-02T15:19:50.764Z,16.60
2023-01-02T15:22:22.603Z,16.60
2023-01-02T15:24:54.912Z,16.60
2023-01-02T15:27:25.883Z,16.60
2023-01-02T15:29:57.862Z,16.60
2023-01-02T15:32:28.506Z,16.60
2023-01-02T15:35:11.820Z,16.60
2023-01-02T15:37:44.851Z,16.60
2023-01-02T15:40:18.806Z,16.60
2023-01-02T15:43:06.097Z,16.60
2023-01-02T15:45:34.753Z,16.60
2023-01-02T15:48:03.941Z,16.60
2023-01-02T15:50:33.761Z,16.60
2023-01-02T15:53:05.410Z,16.60
2023-01-02T15:55:39.302Z,16.60
2023-01-02T15:58:26.000Z,16.60
2023-01-02T16:01:18.086Z,16.60
2023-01-02T16:04:01.887Z,16.60
2023-01-02T16:06:35.901Z,16.60
2023-01-02T16:09:07.481Z,16.60
2023-01-02T16:11:47.880Z,16.60
2023-01-02T16:14:22.330Z,16.60
2023-01-02T16:16:58.909Z,16.60
2023-01-02T16:19:36.043Z,16.60
2023-01-02T16:22:17.704Z,16.60
2023-01-02T16:24:49.348Z,16.60
2023-01-02T16:27:31.044Z,16.50
2023-01-02T16:29:59.772Z,16.50
2023-01-02T16:32:31.186Z,16.50
2023-01-02T16:35:18.082Z,16.40
2023-01-02T16:37:58.159Z,16.40
2023-01-02T16:41:00.527Z,16.40
2023-01-02T16:43:38.249Z,16.40
2023-01-02T16:46:15.353Z,16.30
2023-01-02T16:48:44.917Z,16.30
2023-01-02T16:51:16.716Z,16.30
2023-01-02T16:53:45.979Z,16.20
2023-01-02T16:56:15.500Z,16.20
2023-01-02T16:58:45.158Z,16.20
2023-01-02T17:01:15.791Z,16.10
2023-01-02T17:03:45.307Z,16.10
2023-01-02T17:06:18.214Z,16.10
2023-01-02T17:08:46.574Z,16.10
2023-01-02T17:11:18.339Z,16.00
2023-01-02T17:13:48.252Z,16.00
2023-01-02T17:16:17.273Z,16.00
2023-01-02T17:18:45.637Z,16.00
2023-01-02T17:21:14.081Z,16.00
2023-01-02T17:23:42.414Z,16.00
2023-01-02T17:26:10.825Z,15.90
2023-01-02T17:28:39.172Z,15.90
2023-01-02T17:31:09.225Z,15.90
2023-01-02T17:33:37.585Z,15.90
2023-01-02T17:36:07.854Z,15.90
2023-01-02T17:38:36.172Z,15.90
2023-01-02T17:41:04.741Z,15.90
2023-01-02T17:43:33.949Z,15.80
2023-01-02T17:46:38.631Z,15.80
2023-01-02T17:48:57.017Z,15.80
2023-01-02T17:51:25.539Z,15.80
2023-01-02T17:53:55.828Z,15.70
2023-01-02T17:56:24.531Z,15.70
2023-01-02T17:58:56.186Z,15.70
2023-01-02T18:01:27.151Z,15.70
2023-01-02T18:03:57.354Z,15.60
2023-01-02T18:06:26.868Z,15.60
2023-01-02T18:08:56.036Z,15.60
2023-01-02T18:11:24.965Z,15.60
2023-01-02T18:13:56.376Z,15.60
2023-01-02T18:16:33.285Z,15.50
2023-01-02T18:19:04.196Z,15.50
2023-01-02T18:21:35.247Z,15.50
2023-01-02T18:24:14.935Z,15.50
2023-01-02T18:26:43.262Z,15.50
2023-01-02T18:29:24.477Z,15.40
2023-01-02T18:31:55.438Z,15.40
2023-01-02T18:37:21.146Z,15.40
2023-01-02T18:39:50.118Z,15.40
2023-01-02T18:42:21.893Z,15.40
2023-01-02T18:44:52.444Z,15.30
2023-01-02T18:47:29.775Z,15.30
2023-01-02T18:50:33.253Z,15.30
2023-01-02T18:53:17.101Z,15.30
2023-01-02T18:55:45.842Z,15.30
2023-01-02T18:58:38.849Z,15.30
2023-01-02T19:01:25.298Z,15.20
2023-01-02T19:04:02.977Z,15.20
2023-01-02T19:06:31.663Z,15.20
2023-01-02T19:09:10.587Z,15.20
2023-01-02T19:11:58.434Z,15.20
2023-01-02T19:14:44.310Z,15.20
2023-01-02T19:17:23.097Z,15.10
2023-01-02T19:19:53.392Z,15.10
2023-01-02T19:22:25.390Z,15.10
2023-01-02T19:25:00.521Z,15.10
2023-01-02T19:27:40.322Z,15.10
2023-01-02T19:30:27.618Z,15.10
2023-01-02T19:32:56.071Z,15.00
2023-01-02T19:35:59.494Z,15.00
2023-01-02T19:38:30.611Z,15.00
2023-01-02T19:41:00.963Z,15.00
2023-01-02T19:43:29.310Z,15.00
2023-01-02T19:45:57.813Z,15.00
2023-01-02T19:48:26.174Z,15.00
2023-01-02T19:50:54.473Z,15.00
2023-01-02T19:53:24.126Z,14.90
2023-01-02T19:55:52.431Z,14.90
2023-01-02T19:58:20.924Z,14.90
2023-01-02T20:00:49.262Z,14.90
2023-01-02T20:03:17.624Z,14.90
2023-01-02T20:05:46.107Z,14.90
2023-01-02T20:08:14.426Z,14.90
2023-01-02T20:10:44.109Z,14.80
2023-01-02T20:13:12.421Z,14.80
2023-01-02T20:15:40.860Z,14.80
2023-01-02T20:18:09.340Z,14.80
2023-01-02T20:20:37.698Z,14.80
2023-01-02T20:23:05.998Z,14.70
2023-01-02T20:25:34.310Z,14.70
2023-01-02T20:28:04.294Z,14.70
2023-01-02T20:30:32.738Z,14.70
2023-01-02T20:33:01.371Z,14.70
2023-01-02T20:35:29.747Z,14.70
2023-01-02T20:37:58.055Z,14.70
2023-01-02T20:40:27.605Z,14.70
2023-01-02T20:42:55.919Z,14.70
2023-01-02T20:45:25.646Z,14.70
2023-01-02T20:47:54.231Z,14.70
2023-01-02T20:50:23.319Z,14.70
2023-01-02T20:52:56.719Z,14.70
2023-01-02T20:55:25.581Z,14.70
2023-01-02T20:57:54.415Z,14.70
2023-01-02T21:00:22.948Z,14.70
2023-01-02T21:02:52.873Z,14.70
2023-01-02T21:05:21.347Z,14.70
2023-01-02T21:07:49.709Z,14.70
2023-01-02T21:10:18.275Z,14.70
2023-01-02T21:13:04.160Z,14.60
2023-01-02T21:15:45.882Z,14.60
2023-01-02T21:18:19.489Z,14.60
2023-01-02T21:20:49.824Z,14.60
2023-01-02T21:23:19.989Z,14.60
2023-01-02T21:25:48.795Z,14.60
2023-01-02T21:28:18.139Z,14.60
2023-01-02T21:30:46.915Z,14.60
2023-01-02T21:33:22.923Z,14.60
2023-01-02T21:35:53.740Z,14.60
2023-01-02T21:38:23.938Z,14.50
2023-01-02T21:40:52.954Z,14.50
2023-01-02T21:43:22.831Z,14.50
2023-01-02T21:45:51.386Z,14.50
2023-01-02T21:48:21.082Z,14.50
2023-01-02T21:50:49.360Z,14.50
2023-01-02T21:53:17.679Z,14.50
2023-01-02T21:55:46.834Z,14.50
2023-01-02T21:58:15.350Z,14.50
2023-01-02T22:00:44.589Z,14.50
2023-01-02T22:03:13.344Z,14.50
2023-01-02T22:05:43.277Z,14.50
2023-01-02T22:08:11.716Z,14.40
2023-01-02T22:10:40.099Z,14.50
2023-01-02T22:13:08.446Z,14.50
2023-01-02T22:15:36.730Z,14.40
2023-01-02T22:18:05.303Z,14.40
2023-01-02T22:20:33.589Z,14.40
2023-01-02T22:23:03.288Z,14.40
2023-01-02T22:25:32.647Z,14.40
2023-01-02T22:28:01.195Z,14.40
2023-01-02T22:30:34.517Z,14.40
2023-01-02T22:33:04.523Z,14.40
2023-01-02T22:35:34.233Z,14.30
2023-01-02T22:38:04.269Z,14.30
2023-01-02T22:40:32.562Z,14.30
2023-01-02T22:43:05.725Z,14.30
2023-01-02T22:45:41.198Z,14.20
2023-01-02T22:48:19.094Z,14.30
2023-01-02T22:50:49.601Z,14.30
2023-01-02T22:53:23.828Z,14.30
2023-01-02T22:55:52.549Z,14.20
2023-01-02T22:58:21.462Z,14.20
2023-01-02T23:00:56.777Z,14.20
2023-01-02T23:03:25.223Z,13.90
2023-01-02T23:05:54.061Z,14.20
2023-01-02T23:08:23.833Z,14.20
2023-01-02T23:10:53.022Z,14.10
2023-01-02T23:13:21.445Z,14.10
2023-01-02T23:16:07.486Z,14.10
2023-01-02T23:18:56.948Z,14.10
2023-01-02T23:21:26.331Z,14.00
2023-01-02T23:23:56.557Z,14.00
2023-01-02T23:26:29.745Z,14.00
2023-01-02T23:29:07.557Z,14.00
2023-01-02T23:31:38.113Z,14.00
2023-01-02T23:34:06.633Z,14.00
2023-01-02T23:36:35.265Z,13.90
2023-01-02T23:39:06.245Z,13.90
2023-01-02T23:41:35.660Z,13.90
2023-01-02T23:44:04.596Z,13.90
2023-01-02T23:46:33.305Z,13.90
2023-01-02T23:49:01.744Z,13.90
2023-01-02T23:51:30.588Z,13.90
2023-01-02T23:54:00.079Z,13.90
2023-01-02T23:56:32.019Z,13.90
2023-01-02T23:59:02.650Z,13.90
